KRBG - Roseburg, Oregon, USA
Updated: Wed, 20-Sep-2017 8:53am PDT
Mostly Cloudy
Mostly Cloudy
 Wind from calm
Wind: Calm
Temperature: 55°F , 13°C
Dew Point: 46°F , 8°C
Humidity: 72%
Barometer: 29.83 inHg , 1010.2 hPa
Clouds: Mostly Cloudy
Visibility: 10 miles , 16 km
Cloud details: Mostly Cloudy 3700 ft
Mostly Cloudy 11000 ft
2017/09/20 15:53 KRBG 201553Z AUTO 00000KT 10SM BKN037 BKN110 13/08 A2983 RMK AO2 SLP102 T01330083

Metar display script from Saratoga-Weather.org